.
WxDataArchive / Data Records for 2011-01-21
2011-01-20 January 2011 2011-01-22

Data Records for Friday, 21 January 2011

Time	Temp	Chill	HIndex	Humid	Dewpt	 Wind 	HiWind	WindDir	Rain 	Barom 
-----	----	-----	------	-----	-----	------	------	-------	-----	----- 
00:00	14.6	14.6	14.6	74	7.8	2	4	248	0.00	29.912 
00:05	14.4	14.4	14.4	74	7.7	2	5	248	0.00	29.912 
00:10	14.4	14.4	14.4	73	7.4	2	5	270	0.00	29.912 
00:15	14.3	14.3	14.3	73	7.3	3	5	270	0.00	29.921 
00:20	14.1	14.1	14.1	73	7.1	2	6	248	0.00	29.921 
00:25	14.0	14.0	14.0	73	7.0	3	7	248	0.00	29.921 
00:30	14.0	14.0	14.0	73	7.0	3	7	270	0.00	29.924 
00:35	13.8	13.8	13.8	73	6.8	2	5	270	0.00	29.924 
00:40	13.6	13.6	13.6	73	6.6	2	5	248	0.00	29.924 
00:45	13.6	13.6	13.6	73	6.6	3	6	225	0.00	29.923 
00:50	13.5	13.5	13.5	74	6.8	3	6	270	0.00	29.923 
00:55	13.5	6.7	13.5	74	6.8	4	7	270	0.00	29.923 
01:00	13.3	13.3	13.3	73	6.3	3	6	270	0.00	29.919 
01:05	13.1	13.1	13.1	73	6.1	2	4	248	0.00	29.919 
01:10	12.8	12.8	12.8	74	6.1	2	5	248	0.00	29.919 
01:15	12.6	12.6	12.6	74	5.9	2	4	270	0.00	29.923 
01:20	12.4	12.4	12.4	74	5.7	2	6	270	0.00	29.923 
01:25	12.4	12.4	12.4	74	5.7	3	7	248	0.00	29.923 
01:30	12.4	12.4	12.4	75	6.0	2	4	248	0.00	29.925 
01:35	12.3	12.3	12.3	76	6.2	2	4	248	0.00	29.925 
01:40	12.1	12.1	12.1	76	6.0	2	5	248	0.00	29.925 
01:45	11.9	11.9	11.9	76	5.8	2	5	248	0.00	29.927 
01:50	11.7	11.7	11.7	76	5.6	2	5	248	0.00	29.927 
01:55	11.7	11.7	11.7	76	5.6	2	3	248	0.00	29.927 
02:00	11.6	11.6	11.6	76	5.5	2	5	248	0.00	29.933 
02:05	11.6	11.6	11.6	77	5.8	2	5	248	0.00	29.933 
02:10	11.4	11.4	11.4	77	5.6	2	5	270	0.00	29.933 
02:15	11.4	11.4	11.4	77	5.6	2	5	248	0.00	29.940 
02:20	11.4	11.4	11.4	77	5.6	2	4	248	0.00	29.940 
02:25	11.2	11.2	11.2	77	5.4	2	7	270	0.00	29.940 
02:30	11.1	11.1	11.1	77	5.3	2	4	270	0.00	29.943 
02:35	11.1	11.1	11.1	77	5.3	2	4	270	0.00	29.943 
02:40	11.1	11.1	11.1	77	5.3	2	3	225	0.00	29.943 
02:45	10.9	10.9	10.9	77	5.1	2	3	248	0.00	29.947 
02:50	10.9	10.9	10.9	78	5.4	2	4	248	0.00	29.947 
02:55	10.9	10.9	10.9	78	5.4	2	4	248	0.00	29.947 
03:00	10.9	10.9	10.9	78	5.4	2	3	248	0.00	29.954 
03:05	10.7	10.7	10.7	78	5.2	1	3	292	0.00	29.954 
03:10	10.7	10.7	10.7	78	5.2	2	5	270	0.00	29.954 
03:15	10.7	10.7	10.7	78	5.2	1	4	270	0.00	29.961 
03:20	10.7	10.7	10.7	78	5.2	1	3	248	0.00	29.961 
03:25	10.7	10.7	10.7	77	4.9	2	4	248	0.00	29.961 
03:30	10.5	10.5	10.5	76	4.5	0	2	248	0.00	29.969 
03:35	10.4	10.4	10.4	76	4.4	1	3	248	0.00	29.969 
03:40	10.4	10.4	10.4	76	4.4	2	6	248	0.00	29.969 
03:45	10.4	10.4	10.4	75	4.1	2	6	270	0.00	29.975 
03:50	10.5	10.5	10.5	73	3.6	3	6	270	0.00	29.975 
03:55	10.5	3.2	10.5	72	3.3	4	7	270	0.00	29.975 
04:00	10.5	10.5	10.5	71	3.0	2	6	270	0.00	29.978 
04:05	10.4	10.4	10.4	71	2.9	2	4	248	0.00	29.978 
04:10	10.2	10.2	10.2	71	2.7	3	6	248	0.00	29.978 
04:15	10.2	10.2	10.2	70	2.4	3	6	270	0.00	29.986 
04:20	10.2	10.2	10.2	70	2.4	1	5	248	0.00	29.986 
04:25	9.9	9.9	9.9	70	2.1	1	5	248	0.00	29.986 
04:30	9.5	9.5	9.5	71	2.0	1	3	248	0.00	29.985 
04:35	9.2	9.2	9.2	72	2.0	1	3	248	0.00	29.985 
04:40	9.0	9.0	9.0	73	2.1	1	3	248	0.00	29.985 
04:45	8.8	8.8	8.8	73	1.9	1	3	248	0.00	29.991 
04:50	8.6	8.6	8.6	73	1.8	1	2	248	0.00	29.991 
04:55	8.4	8.4	8.4	74	1.8	1	3	248	0.00	29.991 
05:00	8.3	8.3	8.3	74	1.8	1	3	248	0.00	29.996 
05:05	8.3	8.3	8.3	74	1.8	1	3	248	0.00	29.996 
05:10	8.1	8.1	8.1	74	1.6	1	3	248	0.00	29.996 
05:15	7.9	7.9	7.9	74	1.4	2	4	248	0.00	29.998 
05:20	7.9	7.9	7.9	74	1.4	2	4	248	0.00	29.998 
05:25	7.7	7.7	7.7	74	1.2	1	3	225	0.00	29.998 
05:30	7.6	7.6	7.6	74	1.1	1	3	270	0.00	29.999 
05:35	7.4	7.4	7.4	74	0.9	1	3	270	0.00	29.999 
05:40	7.4	7.4	7.4	75	1.2	2	3	248	0.00	29.999 
05:45	7.2	7.2	7.2	75	1.0	1	4	248	0.00	30.004 
05:50	7.2	7.2	7.2	75	1.0	1	4	248	0.00	30.004 
05:55	7.0	7.0	7.0	75	0.8	1	3	248	0.00	30.004 
06:00	7.0	7.0	7.0	76	1.1	1	3	248	0.00	30.009 
06:05	7.0	7.0	7.0	76	1.1	1	4	248	0.00	30.009 
06:10	7.0	7.0	7.0	76	1.1	2	3	248	0.00	30.009 
06:15	7.0	7.0	7.0	76	1.1	1	6	248	0.00	30.014 
06:20	7.0	7.0	7.0	76	1.1	1	3	248	0.00	30.014 
06:25	6.9	6.9	6.9	75	0.7	1	4	248	0.00	30.014 
06:30	6.7	6.7	6.7	75	0.5	1	3	248	0.00	30.021 
06:35	6.7	6.7	6.7	75	0.5	1	4	248	0.00	30.021 
06:40	6.5	6.5	6.5	75	0.3	1	3	248	0.00	30.021 
06:45	6.5	6.5	6.5	75	0.3	1	3	248	0.00	30.025 
06:50	6.5	6.5	6.5	75	0.3	1	3	248	0.00	30.025 
06:55	6.5	6.5	6.5	75	0.3	1	3	248	0.00	30.025 
07:00	6.5	6.5	6.5	75	0.3	2	4	248	0.00	30.030 
07:05	6.3	6.3	6.3	74	-0.2	1	3	248	0.00	30.030 
07:10	6.3	6.3	6.3	74	-0.2	1	3	248	0.00	30.030 
07:15	6.1	6.1	6.1	74	-0.4	1	4	248	0.00	30.040 
07:20	6.1	6.1	6.1	74	-0.4	2	5	248	0.00	30.040 
07:25	6.0	6.0	6.0	74	-0.5	2	5	248	0.00	30.040 
07:30	6.0	6.0	6.0	74	-0.5	1	4	248	0.00	30.046 
07:35	5.8	5.8	5.8	73	-1.0	2	5	270	0.00	30.046 
07:40	5.6	5.6	5.6	73	-1.1	2	4	248	0.00	30.046 
07:45	5.6	5.6	5.6	73	-1.1	2	5	248	0.00	30.049 
07:50	5.4	5.4	5.4	73	-1.3	1	4	248	0.00	30.049 
07:55	5.2	5.2	5.2	73	-1.5	2	4	248	0.00	30.049 
08:00	5.2	5.2	5.2	73	-1.5	2	6	248	0.00	30.053 
08:05	5.0	5.0	5.0	73	-1.7	2	4	270	0.00	30.053 
08:10	5.0	5.0	5.0	72	-2.0	3	6	248	0.00	30.053 
08:15	4.8	4.8	4.8	72	-2.2	2	5	270	0.00	30.061 
08:20	4.8	4.8	4.8	72	-2.2	1	3	270	0.00	30.061 
08:25	4.7	4.7	4.7	72	-2.3	1	3	248	0.00	30.061 
08:30	4.7	4.7	4.7	72	-2.3	2	5	248	0.00	30.063 
08:35	4.7	4.7	4.7	72	-2.3	2	5	248	0.00	30.063 
08:40	4.8	4.8	4.8	71	-2.5	2	5	248	0.00	30.063 
08:45	4.8	4.8	4.8	71	-2.5	1	4	248	0.00	30.070 
08:50	4.8	4.8	4.8	71	-2.5	2	5	248	0.00	30.070 
08:55	5.0	5.0	5.0	70	-2.6	2	5	248	0.00	30.070 
09:00	5.0	5.0	5.0	70	-2.6	2	4	248	0.00	30.076 
09:05	5.0	5.0	5.0	70	-2.6	2	5	225	0.00	30.076 
09:10	5.2	5.2	5.2	70	-2.4	2	5	248	0.00	30.076 
09:15	5.4	5.4	5.4	70	-2.2	2	3	225	0.00	30.086 
09:20	5.6	5.6	5.6	69	-2.3	2	5	248	0.00	30.086 
09:25	5.8	5.8	5.8	69	-2.1	2	5	270	0.00	30.086 
09:30	6.0	6.0	6.0	69	-1.9	2	5	270	0.00	30.091 
09:35	6.3	6.3	6.3	69	-1.7	2	5	270	0.00	30.091 
09:40	6.5	6.5	6.5	68	-1.8	2	4	270	0.00	30.091 
09:45	6.9	6.9	6.9	67	-1.7	2	5	248	0.00	30.091 
09:50	7.0	7.0	7.0	67	-1.6	2	4	248	0.00	30.091 
09:55	7.2	7.2	7.2	67	-1.4	1	3	248	0.00	30.091 
10:00	7.2	7.2	7.2	66	-1.7	2	4	248	0.00	30.099 
10:05	7.4	7.4	7.4	66	-1.5	2	4	248	0.00	30.099 
10:10	7.6	7.6	7.6	66	-1.3	2	5	248	0.00	30.099 
10:15	7.7	7.7	7.7	66	-1.3	2	4	248	0.00	30.102 
10:20	7.7	7.7	7.7	65	-1.6	2	4	248	0.00	30.102 
10:25	7.9	7.9	7.9	65	-1.4	2	4	270	0.00	30.102 
10:30	7.9	7.9	7.9	65	-1.4	2	3	248	0.00	30.109 
10:35	8.1	8.1	8.1	65	-1.2	2	6	248	0.00	30.109 
10:40	8.3	8.3	8.3	65	-1.0	2	4	270	0.00	30.109 
10:45	8.6	8.6	8.6	65	-0.7	1	2	270	0.00	30.110 
10:50	8.8	8.8	8.8	64	-0.9	1	3	270	0.00	30.110 
10:55	9.2	9.2	9.2	64	-0.5	1	3	248	0.00	30.110 
11:00	9.5	9.5	9.5	64	-0.2	1	3	248	0.00	30.107 
11:05	9.9	9.9	9.9	64	0.2	2	3	248	0.00	30.107 
11:10	10.0	10.0	10.0	64	0.3	1	3	248	0.00	30.107 
11:15	10.4	10.4	10.4	64	0.7	2	3	248	0.00	30.114 
11:20	10.5	10.5	10.5	63	0.4	2	5	248	0.00	30.114 
11:25	10.7	10.7	10.7	63	0.6	1	4	248	0.00	30.114 
11:30	10.9	10.9	10.9	63	0.8	1	3	248	0.00	30.106 
11:35	11.1	11.1	11.1	63	1.0	2	4	225	0.00	30.106 
11:40	11.2	11.2	11.2	62	0.8	2	4	248	0.00	30.106 
11:45	11.2	11.2	11.2	62	0.8	2	3	248	0.00	30.100 
11:50	11.6	11.6	11.6	63	1.5	2	5	248	0.00	30.100 
11:55	11.7	11.7	11.7	62	1.2	2	6	248	0.00	30.100 
12:00	11.9	11.9	11.9	62	1.4	2	4	248	0.00	30.097 
12:05	12.1	12.1	12.1	62	1.6	2	5	248	0.00	30.097 
12:10	12.1	12.1	12.1	62	1.6	2	4	270	0.00	30.097 
12:15	12.3	12.3	12.3	61	1.5	2	5	270	0.00	30.098 
12:20	12.1	12.1	12.1	61	1.3	2	5	248	0.00	30.098 
12:25	12.1	12.1	12.1	61	1.3	2	6	248	0.00	30.098 
12:30	12.1	12.1	12.1	60	0.9	3	9	248	0.00	30.102 
12:35	11.9	11.9	11.9	61	1.1	3	7	248	0.00	30.102 
12:40	11.7	11.7	11.7	61	0.9	3	7	270	0.00	30.102 
12:45	11.9	11.9	11.9	61	1.1	2	5	248	0.00	30.101 
12:50	12.1	12.1	12.1	62	1.6	2	6	270	0.00	30.101 
12:55	12.1	12.1	12.1	60	0.9	3	7	248	0.00	30.101 
13:00	11.9	11.9	11.9	60	0.7	3	7	248	0.00	30.097 
13:05	12.1	12.1	12.1	61	1.3	2	6	248	0.00	30.097 
13:10	12.3	12.3	12.3	61	1.5	2	5	248	0.00	30.097 
13:15	12.3	12.3	12.3	61	1.5	2	4	248	0.00	30.097 
13:20	12.3	12.3	12.3	60	1.1	3	7	248	0.00	30.097 
13:25	12.4	12.4	12.4	61	1.5	2	5	248	0.00	30.097 
13:30	12.6	12.6	12.6	61	1.7	2	5	248	0.00	30.094 
13:35	12.9	12.9	12.9	61	2.0	2	5	248	0.00	30.094 
13:40	13.3	13.3	13.3	61	2.4	2	6	248	0.00	30.094 
13:45	13.5	13.5	13.5	60	2.2	2	6	292	0.00	30.095 
13:50	13.5	13.5	13.5	60	2.2	3	9	248	0.00	30.095 
13:55	13.5	13.5	13.5	60	2.2	2	9	248	0.00	30.095 
14:00	13.6	13.6	13.6	60	2.3	3	9	270	0.00	30.095 
14:05	13.6	13.6	13.6	59	2.0	3	7	248	0.00	30.095 
14:10	13.8	13.8	13.8	60	2.5	3	6	270	0.00	30.095 
14:15	13.6	13.6	13.6	59	2.0	3	6	248	0.00	30.095 
14:20	13.6	13.6	13.6	59	2.0	2	7	225	0.00	30.095 
14:25	13.5	13.5	13.5	60	2.2	2	5	270	0.00	30.095 
14:30	13.6	13.6	13.6	59	2.0	2	4	292	0.00	30.094 
14:35	13.3	13.3	13.3	59	1.7	2	4	270	0.00	30.094 
14:40	13.1	13.1	13.1	60	1.9	2	5	248	0.00	30.094 
14:45	13.1	13.1	13.1	60	1.9	2	5	248	0.00	30.096 
14:50	13.1	13.1	13.1	60	1.9	2	5	248	0.00	30.096 
14:55	13.5	13.5	13.5	60	2.2	3	5	248	0.00	30.096 
15:00	13.5	13.5	13.5	60	2.2	3	7	248	0.00	30.096 
15:05	13.8	13.8	13.8	59	2.2	2	6	248	0.00	30.096 
15:10	13.8	13.8	13.8	59	2.2	2	5	248	0.00	30.096 
15:15	13.6	13.6	13.6	59	2.0	2	6	248	0.00	30.098 
15:20	13.8	13.8	13.8	59	2.2	1	4	248	0.00	30.098 
15:25	13.8	13.8	13.8	59	2.2	2	4	248	0.00	30.098 
15:30	14.0	14.0	14.0	59	2.3	2	4	225	0.00	30.098 
15:35	14.0	14.0	14.0	59	2.3	2	5	248	0.00	30.098 
15:40	14.1	14.1	14.1	58	2.1	2	7	248	0.00	30.098 
15:45	14.0	14.0	14.0	59	2.3	2	4	270	0.00	30.096 
15:50	14.0	14.0	14.0	59	2.3	1	3	248	0.00	30.096 
15:55	13.8	13.8	13.8	58	1.8	1	3	248	0.00	30.096 
16:00	13.6	13.6	13.6	59	2.0	1	4	338	0.00	30.097 
16:05	13.5	13.5	13.5	59	1.9	1	3	338	0.00	30.097 
16:10	13.5	13.5	13.5	59	1.9	1	4	270	0.00	30.097 
16:15	13.3	13.3	13.3	59	1.7	1	3	270	0.00	30.106 
16:20	13.1	13.1	13.1	59	1.5	1	3	248	0.00	30.106 
16:25	12.9	12.9	12.9	60	1.7	1	3	248	0.00	30.106 
16:30	12.9	12.9	12.9	60	1.7	2	5	248	0.00	30.111 
16:35	12.9	12.9	12.9	61	2.0	1	3	248	0.00	30.111 
16:40	12.8	12.8	12.8	61	1.9	2	4	248	0.00	30.111 
16:45	12.8	12.8	12.8	61	1.9	1	3	248	0.00	30.114 
16:50	12.6	12.6	12.6	61	1.7	1	3	248	0.00	30.114 
16:55	12.4	12.4	12.4	61	1.5	1	3	248	0.00	30.114 
17:00	12.4	12.4	12.4	62	1.9	1	3	248	0.00	30.115 
17:05	12.3	12.3	12.3	62	1.8	1	3	248	0.00	30.115 
17:10	12.1	12.1	12.1	62	1.6	1	2	248	0.00	30.115 
17:15	11.9	11.9	11.9	62	1.4	1	3	248	0.00	30.116 
17:20	11.9	11.9	11.9	62	1.4	1	3	248	0.00	30.116 
17:25	11.7	11.7	11.7	62	1.2	1	2	248	0.00	30.116 
17:30	11.6	11.6	11.6	62	1.1	1	2	248	0.00	30.118 
17:35	11.6	11.6	11.6	62	1.1	0	2	248	0.00	30.118 
17:40	11.4	11.4	11.4	62	0.9	0	2	248	0.00	30.118 
17:45	11.2	11.2	11.2	62	0.8	1	4	248	0.00	30.124 
17:50	10.9	10.9	10.9	63	0.8	1	3	248	0.00	30.124 
17:55	10.7	10.7	10.7	63	0.6	1	3	248	0.00	30.124 
18:00	10.5	10.5	10.5	64	0.8	0	1	248	0.00	30.129 
18:05	10.2	10.2	10.2	64	0.5	0	2	248	0.00	30.129 
18:10	10.0	10.0	10.0	64	0.3	0	2	248	0.00	30.129 
18:15	9.9	9.9	9.9	65	0.5	1	3	248	0.00	30.132 
18:20	9.7	9.7	9.7	65	0.3	0	3	248	0.00	30.132 
18:25	9.5	9.5	9.5	65	0.1	1	3	248	0.00	30.132 
18:30	9.3	9.3	9.3	65	-0.0	1	4	248	0.00	30.133 
18:35	9.3	9.3	9.3	65	-0.0	0	2	248	0.00	30.133 
18:40	9.2	9.2	9.2	65	-0.1	0	2	248	0.00	30.133 
18:45	9.0	9.0	9.0	66	-0.0	1	4	248	0.00	30.134 
18:50	9.0	9.0	9.0	66	-0.0	1	3	248	0.00	30.134 
18:55	8.8	8.8	8.8	66	-0.2	1	3	248	0.00	30.134 
19:00	8.8	8.8	8.8	66	-0.2	1	4	248	0.00	30.141 
19:05	8.6	8.6	8.6	66	-0.4	1	4	248	0.00	30.141 
19:10	8.6	8.6	8.6	66	-0.4	0	3	248	0.00	30.141 
19:15	8.6	8.6	8.6	67	-0.1	1	3	248	0.00	30.147 
19:20	8.6	8.6	8.6	66	-0.4	1	3	248	0.00	30.147 
19:25	8.8	8.8	8.8	67	0.1	1	4	248	0.00	30.147 
19:30	8.8	8.8	8.8	67	0.1	1	4	248	0.00	30.148 
19:35	9.0	9.0	9.0	67	0.3	1	3	248	0.00	30.148 
19:40	9.0	9.0	9.0	67	0.3	1	4	248	0.00	30.148 
19:45	8.8	8.8	8.8	67	0.1	1	4	248	0.00	30.143 
19:50	8.8	8.8	8.8	67	0.1	1	4	248	0.00	30.143 
19:55	8.6	8.6	8.6	67	-0.1	1	4	248	0.00	30.143 
20:00	8.6	8.6	8.6	67	-0.1	1	3	225	0.00	30.147 
20:05	8.6	8.6	8.6	68	0.2	2	5	225	0.00	30.147 
20:10	8.4	8.4	8.4	68	0.0	2	5	248	0.00	30.147 
20:15	8.4	8.4	8.4	68	0.0	1	4	248	0.00	30.150 
20:20	8.4	8.4	8.4	68	0.0	2	4	248	0.00	30.150 
20:25	8.3	8.3	8.3	68	-0.0	1	3	248	0.00	30.150 
20:30	8.3	8.3	8.3	68	-0.0	1	4	248	0.00	30.147 
20:35	8.3	8.3	8.3	68	-0.0	1	4	248	0.00	30.147 
20:40	8.1	8.1	8.1	68	-0.2	0	2	248	0.00	30.147 
20:45	8.1	8.1	8.1	68	-0.2	1	3	248	0.00	30.147 
20:50	8.1	8.1	8.1	68	-0.2	1	3	248	0.00	30.147 
20:55	8.1	8.1	8.1	68	-0.2	1	4	248	0.00	30.147 
21:00	8.1	8.1	8.1	68	-0.2	1	4	248	0.00	30.141 
21:05	8.1	8.1	8.1	68	-0.2	0	2	248	0.00	30.141 
21:10	7.9	7.9	7.9	68	-0.4	1	3	248	0.00	30.141 
21:15	7.9	7.9	7.9	68	-0.4	1	2	248	0.00	30.138 
21:20	7.9	7.9	7.9	68	-0.4	1	2	248	0.00	30.138 
21:25	7.9	7.9	7.9	67	-0.7	0	2	248	0.00	30.138 
21:30	7.7	7.7	7.7	67	-0.9	1	3	248	0.00	30.138 
21:35	7.7	7.7	7.7	67	-0.9	1	2	248	0.00	30.138 
21:40	7.6	7.6	7.6	67	-1.0	0	1	248	0.00	30.138 
21:45	7.4	7.4	7.4	67	-1.2	1	2	248	0.00	30.136 
21:50	7.2	7.2	7.2	67	-1.4	0	2	248	0.00	30.136 
21:55	7.0	7.0	7.0	67	-1.6	0	1	248	0.00	30.136 
22:00	6.9	6.9	6.9	67	-1.7	0	2	248	0.00	30.135 
22:05	6.5	6.5	6.5	67	-2.1	0	1	248	0.00	30.135 
22:10	6.3	6.3	6.3	67	-2.3	0	2	248	0.00	30.135 
22:15	6.1	6.1	6.1	67	-2.5	1	2	248	0.00	30.129 
22:20	6.1	6.1	6.1	67	-2.5	0	1	248	0.00	30.129 
22:25	6.0	6.0	6.0	67	-2.6	0	2	248	0.00	30.129 
22:30	5.6	5.6	5.6	67	-2.9	0	0	---	0.00	30.127 
22:35	5.4	5.4	5.4	67	-3.1	0	0	---	0.00	30.127 
22:40	5.2	5.2	5.2	68	-3.0	0	0	---	0.00	30.127 
22:45	5.0	5.0	5.0	68	-3.2	0	0	---	0.00	30.123 
22:50	4.8	4.8	4.8	68	-3.4	0	0	---	0.00	30.123 
22:55	4.7	4.7	4.7	68	-3.5	0	0	---	0.00	30.123 
23:00	4.5	4.5	4.5	69	-3.4	0	0	---	0.00	30.120 
23:05	4.3	4.3	4.3	69	-3.6	0	0	---	0.00	30.120 
23:10	4.1	4.1	4.1	69	-3.8	0	0	---	0.00	30.120 
23:15	3.9	3.9	3.9	69	-4.0	0	0	---	0.00	30.116 
23:20	3.5	3.5	3.5	69	-4.4	0	0	---	0.00	30.116 
23:25	3.4	3.4	3.4	69	-4.4	0	0	---	0.00	30.116 
23:30	3.0	3.0	3.0	69	-4.8	0	0	---	0.00	30.119 
23:35	2.6	2.6	2.6	70	-4.9	0	0	---	0.00	30.119 
23:40	2.6	2.6	2.6	71	-4.6	0	0	---	0.00	30.119 
23:45	2.6	2.6	2.6	71	-4.6	0	0	---	0.00	30.117 
23:50	2.6	2.6	2.6	72	-4.3	0	0	---	0.00	30.117 
23:55	2.8	2.8	2.8	73	-3.9	0	0	---	0.00	30.117 

CoCoRaHS
IN-AL-39
A2 Web Hosting
Creative Commons License
GoDaddy
search engine by freefind advanced

loaded 2018-11-15 03:04:25 • last modified 2010-11-18 10:43:29
Privacy PolicyDisclaimer
• wx.awcolley.com is powered by PmWiki v.2002016 •
• all content (unless otherwise noted) © 2018 A W Colley